Time;durP1;ratioP1;P1;durP2;ratioP2;P2;SDS_P1;SDS_P2;PMS_P1;PMS_P2;Temp;Humidity;BMP_temperature;BMP_pressure;BME280_temperature;BME280_humidity;BME280_pressure;Samples;Min_cycle;Max_cycle;Signal;HPM_P1;HPM_P2
2021/07/10 03:38:05;;;;;;;14.63;11.13;;;;;;;17.99;62.38;99060.31;6880636;28;20227;-89
2021/07/10 03:41:27;;;;;;;18.17;12.80;;;;;;;17.95;62.35;99031.84;6865302;28;20288;-86
2021/07/10 03:44:48;;;;;;;14.33;12.93;;;;;;;18.09;62.16;99036.75;6840428;29;20211;-86
2021/07/10 03:48:10;;;;;;;14.20;12.67;;;;;;;18.27;62.14;99073.91;6842046;29;20229;-87
2021/07/10 03:51:32;;;;;;;13.63;11.73;;;;;;;17.89;62.07;99043.75;6840139;28;20218;-86
2021/07/10 03:54:55;;;;;;;13.63;11.97;;;;;;;17.94;62.43;99049.28;6844111;28;20226;-85
2021/07/10 03:58:16;;;;;;;14.43;12.90;;;;;;;17.92;61.98;99048.72;6839431;28;20573;-86
2021/07/10 04:01:41;;;;;;;14.37;12.37;;;;;;;17.97;62.64;99059.69;6839925;29;20227;-86
2021/07/10 04:05:04;;;;;;;14.53;13.13;;;;;;;18.02;62.60;99066.09;6853189;28;20209;-86
2021/07/10 04:08:26;;;;;;;15.10;12.77;;;;;;;17.91;62.58;99058.78;6866498;28;20222;-86
2021/07/10 04:11:49;;;;;;;16.77;12.40;;;;;;;17.96;62.33;99050.72;6867183;28;20235;-86
2021/07/10 04:15:12;;;;;;;12.77;10.47;;;;;;;18.26;61.76;99067.59;6867440;28;20209;-85
2021/07/10 04:18:34;;;;;;;18.13;12.97;;;;;;;18.24;61.40;99067.03;6855793;28;20203;-86
2021/07/10 04:21:56;;;;;;;14.20;11.53;;;;;;;17.91;61.98;99042.44;6856376;28;20239;-85
2021/07/10 04:25:19;;;;;;;15.53;11.90;;;;;;;17.93;62.38;99066.75;6871635;28;20196;-88
2021/07/10 04:28:42;;;;;;;11.70;10.50;;;;;;;18.16;62.06;99051.03;6871545;28;20205;-85
2021/07/10 04:32:05;;;;;;;13.97;11.40;;;;;;;18.09;62.00;99044.94;6861376;28;20219;-85
2021/07/10 04:35:26;;;;;;;12.70;11.30;;;;;;;18.34;61.00;99053.56;6845011;29;20220;-85
2021/07/10 04:38:48;;;;;;;11.37;10.00;;;;;;;18.60;61.06;99072.00;6845463;28;20224;-85
2021/07/10 04:42:10;;;;;;;11.37;10.27;;;;;;;18.29;60.34;99063.53;6860776;28;20222;-85
2021/07/10 04:45:33;;;;;;;12.43;11.13;;;;;;;18.25;60.85;99078.75;6871372;28;20232;-86
2021/07/10 04:48:54;;;;;;;10.70;9.60;;;;;;;18.57;61.25;99075.22;6871033;28;20208;-87
2021/07/10 04:52:16;;;;;;;11.53;10.33;;;;;;;18.76;60.67;99043.00;6874140;28;20252;-88
2021/07/10 04:55:38;;;;;;;12.10;10.90;;;;;;;18.69;61.00;99036.91;6863101;28;20207;-86
2021/07/10 04:58:59;;;;;;;13.17;10.87;;;;;;;18.70;60.76;99068.59;6848350;28;20206;-88
2021/07/10 05:02:22;;;;;;;13.70;12.27;;;;;;;18.38;62.96;99049.25;6847812;28;20236;-88
2021/07/10 05:05:45;;;;;;;10.73;9.83;;;;;;;18.33;62.89;99019.16;6871737;28;20235;-90
2021/07/10 05:09:07;;;;;;;12.27;10.70;;;;;;;18.96;62.88;99079.66;6872386;28;20193;-88
2021/07/10 05:12:28;;;;;;;11.33;10.33;;;;;;;19.50;61.00;99058.75;6870635;28;20228;-88
2021/07/10 05:15:50;;;;;;;11.37;10.27;;;;;;;19.96;60.26;99069.09;6870652;28;20209;-86
2021/07/10 05:19:13;;;;;;;11.07;10.07;;;;;;;19.88;60.38;99042.22;6870016;28;20570;-86
2021/07/10 05:22:34;;;;;;;10.23;9.13;;;;;;;20.11;59.07;99045.47;6870094;28;20228;-86
2021/07/10 05:25:56;;;;;;;9.37;8.47;;;;;;;20.22;59.51;99011.63;6870671;28;20236;-87
2021/07/10 05:29:17;;;;;;;9.50;8.60;;;;;;;21.07;57.20;99064.31;6869801;28;20216;-86
2021/07/10 05:32:39;;;;;;;9.00;8.20;;;;;;;21.16;56.92;99040.75;6869954;28;20312;-86
2021/07/10 05:36:02;;;;;;;9.63;8.73;;;;;;;21.38;56.38;99058.69;6869876;28;20212;-86
2021/07/10 05:39:24;;;;;;;8.37;7.63;;;;;;;21.89;55.06;99035.00;6861801;28;20209;-86
2021/07/10 05:42:48;;;;;;;8.63;7.70;;;;;;;22.20;53.99;99064.13;6854538;28;20612;-87
2021/07/10 05:46:11;;;;;;;8.93;8.07;;;;;;;21.85;55.67;99045.69;6864501;28;20260;-87
2021/07/10 05:49:32;;;;;;;7.33;6.60;;;;;;;22.40;53.78;99018.25;6866357;28;20201;-87
2021/07/10 05:52:55;;;;;;;8.17;7.00;;;;;;;22.15;55.12;99029.25;6869609;28;20225;-87
2021/07/10 05:56:17;;;;;;;7.53;6.83;;;;;;;22.53;53.81;99028.72;6869655;28;20241;-87
2021/07/10 05:59:39;;;;;;;8.23;6.40;;;;;;;22.39;55.46;99024.03;6869148;28;20561;-87
2021/07/10 06:03:01;;;;;;;7.67;6.90;;;;;;;22.45;54.74;99023.78;6869280;28;20221;-87
2021/07/10 06:06:22;;;;;;;7.83;6.70;;;;;;;22.83;54.31;99025.91;6869289;28;20221;-87
2021/07/10 06:09:45;;;;;;;6.87;6.27;;;;;;;23.04;52.46;99013.75;6868606;28;20206;-87
2021/07/10 06:13:07;;;;;;;6.70;6.10;;;;;;;23.13;52.85;99036.00;6869156;28;20703;-87
2021/07/10 06:16:29;;;;;;;6.87;6.17;;;;;;;22.57;54.47;99016.06;6869524;28;20691;-87
2021/07/10 06:19:50;;;;;;;7.50;6.77;;;;;;;22.44;55.54;98991.91;6868954;28;20215;-87
2021/07/10 06:23:12;;;;;;;6.53;5.93;;;;;;;22.93;53.47;98959.06;6869166;28;20228;-87
2021/07/10 06:26:35;;;;;;;7.07;6.47;;;;;;;23.22;54.14;99015.91;6868114;28;20223;-87
2021/07/10 06:29:56;;;;;;;6.17;5.57;;;;;;;23.91;53.12;99018.59;6868649;28;20214;-87
2021/07/10 06:33:18;;;;;;;5.97;5.47;;;;;;;24.41;51.47;99005.25;6869518;28;20234;-87
2021/07/10 06:36:40;;;;;;;6.43;5.83;;;;;;;24.67;50.68;99006.66;6869047;28;20222;-88
2021/07/10 06:40:01;;;;;;;6.03;5.53;;;;;;;24.24;50.97;98962.69;6869617;28;20210;-87
2021/07/10 06:43:24;;;;;;;6.03;5.43;;;;;;;24.57;52.18;99015.06;6869580;28;20228;-88
2021/07/10 06:46:46;;;;;;;6.77;6.10;;;;;;;25.10;50.61;99004.81;6868187;28;20709;-87
2021/07/10 06:50:10;;;;;;;5.73;5.30;;;;;;;25.59;50.38;99002.59;6847822;28;20200;-87
2021/07/10 06:53:31;;;;;;;5.10;4.60;;;;;;;26.74;46.74;99025.66;6840733;28;20216;-85
2021/07/10 06:56:53;;;;;;;5.60;5.10;;;;;;;26.67;45.58;99025.22;6840100;29;20599;-83
2021/07/10 07:00:18;;;;;;;5.60;5.20;;;;;;;26.93;45.78;99007.03;6853624;28;20212;-84
2021/07/10 07:03:39;;;;;;;6.20;5.60;;;;;;;26.49;46.78;99018.59;6863961;28;20207;-84
2021/07/10 07:07:01;;;;;;;5.47;5.07;;;;;;;27.22;45.69;99005.66;6867812;28;20222;-85
2021/07/10 07:10:23;;;;;;;6.27;5.70;;;;;;;25.76;48.20;98980.78;6866703;28;20215;-85
2021/07/10 07:13:44;;;;;;;6.33;4.80;;;;;;;26.89;47.14;98997.72;6849524;28;20202;-85
2021/07/10 07:17:07;;;;;;;5.70;5.23;;;;;;;25.75;49.16;98988.25;6840923;28;20221;-85
2021/07/10 07:20:29;;;;;;;5.90;4.60;;;;;;;26.81;46.54;99003.94;6840985;28;20237;-84
2021/07/10 07:23:51;;;;;;;5.73;5.23;;;;;;;27.41;44.66;98992.50;6840790;28;20208;-84
2021/07/10 07:27:13;;;;;;;5.33;4.80;;;;;;;25.70;48.08;98990.25;6840766;28;20246;-84
2021/07/10 07:30:34;;;;;;;5.73;5.20;;;;;;;26.60;45.44;98988.84;6840736;28;20236;-85
2021/07/10 07:34:06;;;;;;;4.93;4.53;;;;;;;27.39;44.26;98969.84;6842282;28;20219;-85
2021/07/10 07:37:28;;;;;;;5.27;4.87;;;;;;;26.33;45.71;98975.75;6841880;28;20227;-89
2021/07/10 07:40:50;;;;;;;5.10;4.70;;;;;;;25.38;48.29;98984.63;6840733;28;20300;-87
2021/07/10 07:44:11;;;;;;;5.70;5.20;;;;;;;26.69;43.80;98960.19;6840840;28;20224;-86
2021/07/10 07:47:42;;;;;;;5.93;4.97;;;;;;;27.65;43.34;98957.06;6856366;28;20233;-87
2021/07/10 07:51:05;;;;;;;5.23;4.47;;;;;;;28.21;42.38;98965.72;6840154;29;20263;-87
2021/07/10 07:54:27;;;;;;;6.30;5.80;;;;;;;27.43;41.71;98950.66;6839914;28;20215;-84
2021/07/10 07:57:49;;;;;;;6.00;5.47;;;;;;;25.32;44.85;98881.72;6848471;28;20198;-86
2021/07/10 08:01:10;;;;;;;5.70;5.20;;;;;;;27.27;42.67;98968.72;6859943;28;20221;-86
2021/07/10 08:04:32;;;;;;;5.47;4.97;;;;;;;27.89;40.51;98945.72;6867332;28;20204;-89
2021/07/10 08:08:10;;;;;;;5.20;4.77;;;;;;;27.50;40.22;98956.59;6867678;28;20228;-86
2021/07/10 08:11:35;;;;;;;5.37;4.93;;;;;;;26.18;43.44;98962.16;6795317;29;20238;-88
2021/07/10 08:14:56;;;;;;;5.23;4.73;;;;;;;26.19;43.87;98952.75;6780662;29;20214;-84
2021/07/10 08:18:18;;;;;;;5.37;4.87;;;;;;;27.18;44.23;98949.25;6784142;29;20203;-88
2021/07/10 08:21:40;;;;;;;6.70;5.30;;;;;;;27.65;41.03;98940.44;6780924;29;20234;-86
2021/07/10 08:25:04;;;;;;;5.33;4.87;;;;;;;27.51;41.89;98862.09;6778582;29;20201;-84
2021/07/10 08:28:25;;;;;;;5.87;5.10;;;;;;;29.00;40.78;98928.63;6786134;29;20801;-85
2021/07/10 08:31:47;;;;;;;5.67;4.90;;;;;;;28.38;39.71;98902.03;6772720;29;20592;-84
2021/07/10 08:35:10;;;;;;;5.40;4.90;;;;;;;29.48;38.71;98937.75;6764505;29;20212;-87
2021/07/10 08:38:31;;;;;;;4.83;4.43;;;;;;;28.35;39.48;98905.44;6764300;29;20189;-84
2021/07/10 08:41:55;;;;;;;5.17;4.37;;;;;;;27.38;41.58;98923.06;6764243;29;20643;-82
2021/07/10 08:45:16;;;;;;;4.70;4.20;;;;;;;27.36;42.08;98917.03;6775368;29;20211;-81
2021/07/10 08:48:39;;;;;;;4.90;4.50;;;;;;;28.20;40.36;98918.88;6820171;29;20690;-83
2021/07/10 08:52:00;;;;;;;7.63;4.40;;;;;;;29.73;38.61;98922.28;6844691;29;20223;-84
2021/07/10 08:55:22;;;;;;;5.23;4.20;;;;;;;29.75;37.86;98903.28;6845298;29;20219;-85
2021/07/10 08:58:46;;;;;;;4.13;3.83;;;;;;;30.60;36.68;98903.19;6845806;29;20210;-84
2021/07/10 09:02:08;;;;;;;4.33;3.93;;;;;;;31.06;36.03;98928.22;6844196;28;20238;-86
2021/07/10 09:05:30;;;;;;;4.30;3.90;;;;;;;31.33;35.30;98906.31;6843439;29;20215;-85
2021/07/10 09:08:55;;;;;;;4.00;3.70;;;;;;;30.15;36.49;98927.84;6859836;28;20254;-85
2021/07/10 09:12:28;;;;;;;4.10;3.73;;;;;;;29.13;37.64;98918.56;6873889;28;20231;-83
2021/07/10 09:16:00;;;;;;;3.97;3.67;;;;;;;29.86;36.87;98926.84;6865649;28;20194;-83
2021/07/10 09:19:24;;;;;;;4.17;3.77;;;;;;;30.71;35.37;98910.84;6860448;28;20215;-88
2021/07/10 09:22:46;;;;;;;3.77;3.40;;;;;;;30.87;34.24;98908.31;6864313;28;20589;-83
2021/07/10 09:26:16;;;;;;;4.10;3.40;;;;;;;30.41;34.44;98905.50;6859288;28;20210;-83
2021/07/10 09:29:39;;;;;;;3.83;3.10;;;;;;;31.46;33.02;98891.28;6850570;29;20236;-84
2021/07/10 09:33:13;;;;;;;3.20;3.00;;;;;;;31.40;31.91;98895.44;6851213;29;20231;-83
2021/07/10 09:36:35;;;;;;;3.50;3.20;;;;;;;29.97;33.65;98884.50;6847352;29;20222;-85
2021/07/10 09:40:01;;;;;;;4.07;3.67;;;;;;;28.59;37.56;98880.09;6858579;28;20202;-83
2021/07/10 09:43:23;;;;;;;3.63;3.33;;;;;;;27.78;38.19;98866.72;6866883;28;20228;-83
2021/07/10 09:46:45;;;;;;;4.00;3.57;;;;;;;28.68;36.65;98872.66;6876721;28;20233;-84
2021/07/10 09:50:10;;;;;;;3.70;3.40;;;;;;;28.65;37.70;98882.44;6877873;28;20197;-88
2021/07/10 09:53:31;;;;;;;5.67;3.50;;;;;;;29.29;37.13;98881.66;6855034;28;20659;-86
2021/07/10 09:57:05;;;;;;;3.43;3.13;;;;;;;30.32;35.44;98866.59;6850714;28;20349;-88
2021/07/10 10:00:27;;;;;;;3.50;3.30;;;;;;;30.15;34.93;98797.13;6848659;28;20198;-83
2021/07/10 10:03:49;;;;;;;4.33;3.60;;;;;;;27.99;36.58;98824.31;6847120;28;20215;-84
2021/07/10 10:07:14;;;;;;;3.83;3.20;;;;;;;29.98;35.55;98829.66;6852707;28;20233;-83
2021/07/10 10:10:37;;;;;;;3.80;3.50;;;;;;;28.99;35.95;98813.16;6868469;28;20235;-86
2021/07/10 10:14:08;;;;;;;3.20;3.00;;;;;;;31.27;32.70;98809.31;6869092;28;20212;-84
2021/07/10 10:17:30;;;;;;;3.10;2.90;;;;;;;29.77;34.73;98768.38;6870539;28;20209;-83
2021/07/10 10:20:53;;;;;;;4.07;3.70;;;;;;;31.36;32.76;98860.22;6870595;28;20234;-83
2021/07/10 10:24:19;;;;;;;3.67;2.87;;;;;;;30.95;31.98;98807.22;6868648;28;20215;-86
2021/07/10 10:27:40;;;;;;;4.97;3.47;;;;;;;32.32;31.96;98849.53;6869205;28;20237;-83
2021/07/10 10:31:03;;;;;;;3.33;2.77;;;;;;;33.01;29.18;98827.97;6870452;28;20727;-82
2021/07/10 10:34:24;;;;;;;3.20;2.90;;;;;;;32.12;30.12;98736.78;6870407;28;20212;-83
2021/07/10 10:37:46;;;;;;;3.20;2.90;;;;;;;32.84;28.82;98836.59;6869538;28;20674;-82
2021/07/10 10:41:09;;;;;;;2.63;2.43;;;;;;;32.89;29.56;98842.75;6869335;28;20224;-83
2021/07/10 10:44:36;;;;;;;2.83;2.63;;;;;;;33.10;29.40;98834.22;6869044;28;20215;-83
2021/07/10 10:47:58;;;;;;;3.47;2.90;;;;;;;31.61;30.04;98832.13;6867813;28;20217;-83
2021/07/10 10:51:31;;;;;;;2.70;2.50;;;;;;;30.70;31.25;98825.72;6867775;28;20242;-83
2021/07/10 10:54:56;;;;;;;4.17;3.17;;;;;;;31.03;32.60;98817.47;6870189;28;20665;-83
2021/07/10 10:58:22;;;;;;;2.80;2.60;;;;;;;30.20;32.81;98823.94;6868815;28;20589;-83
2021/07/10 11:01:44;;;;;;;2.83;2.63;;;;;;;30.00;33.63;98824.59;6868365;28;20727;-83
2021/07/10 11:05:06;;;;;;;2.80;2.60;;;;;;;30.93;31.28;98809.50;6865510;28;20207;-84
2021/07/10 11:08:52;;;;;;;3.50;3.00;;;;;;;29.93;32.28;98804.81;6862122;28;20228;-84
2021/07/10 11:12:52;;;;;;;4.13;3.00;;;;;;;31.21;31.17;98800.34;6838835;28;20228;-86
2021/07/10 11:16:17;;;;;;;3.00;2.80;;;;;;;31.73;30.74;98798.75;6862263;28;20219;-84
2021/07/10 11:20:00;;;;;;;3.10;2.87;;;;;;;30.47;32.97;98790.09;6851028;28;20636;-84
2021/07/10 11:23:31;;;;;;;3.40;3.10;;;;;;;32.02;31.85;98789.44;6836283;28;20232;-84
2021/07/10 11:27:24;;;;;;;3.00;2.80;;;;;;;32.43;30.38;98767.78;6835869;29;20687;-83
2021/07/10 11:30:47;;;;;;;5.43;2.60;;;;;;;33.17;28.80;98773.78;6834292;29;20241;-84
2021/07/10 11:34:12;;;;;;;3.10;2.90;;;;;;;33.02;28.32;98762.53;6834301;28;20217;-83
2021/07/10 11:37:42;;;;;;;3.77;2.90;;;;;;;30.91;31.82;98765.28;6860119;28;20219;-84
2021/07/10 11:41:04;;;;;;;3.00;2.50;;;;;;;31.26;31.52;98749.97;6861027;28;20241;-84
2021/07/10 11:44:27;;;;;;;2.63;2.43;;;;;;;31.84;30.24;98746.16;6861223;28;20361;-84
2021/07/10 11:47:51;;;;;;;3.00;2.70;;;;;;;32.53;29.99;98733.81;6861289;28;20262;-84
2021/07/10 11:51:19;;;;;;;2.70;2.50;;;;;;;32.95;30.19;98734.38;6860346;28;20593;-84
2021/07/10 11:54:46;;;;;;;3.30;3.00;;;;;;;32.88;28.57;98728.56;6868500;28;20212;-87
2021/07/10 11:58:10;;;;;;;3.47;2.50;;;;;;;32.51;30.03;98718.56;6863218;28;20210;-85
2021/07/10 12:02:18;;;;;;;2.47;2.27;;;;;;;30.75;30.99;98721.69;6875597;28;20240;-84
2021/07/10 12:09:58;;;;;;;2.60;2.40;;;;;;;32.91;28.77;98700.72;6865689;28;20221;-88
2021/07/10 12:13:22;;;;;;;3.03;2.50;;;;;;;32.71;29.89;98712.03;6862699;28;20229;-85
2021/07/10 12:16:43;;;;;;;2.57;2.43;;;;;;;31.40;29.54;98711.50;6859630;28;20205;-85
2021/07/10 12:20:09;;;;;;;3.17;2.67;;;;;;;31.55;29.49;98685.75;6844493;28;20206;-87
2021/07/10 12:23:31;;;;;;;2.87;2.67;;;;;;;30.50;30.87;98700.38;6853202;28;20240;-87
2021/07/10 12:26:55;;;;;;;2.70;2.50;;;;;;;31.85;30.04;98633.44;6868169;28;20209;-85
2021/07/10 12:30:36;;;;;;;2.30;2.10;;;;;;;33.28;28.04;98693.06;6874316;28;20230;-85
2021/07/10 12:33:59;;;;;;;3.17;2.50;;;;;;;33.51;27.89;98653.00;6867312;28;20202;-86
2021/07/10 12:37:22;;;;;;;2.60;2.40;;;;;;;32.30;29.10;98688.00;6859264;28;20216;-87
2021/07/10 12:40:43;;;;;;;2.30;2.20;;;;;;;31.98;27.66;98688.91;6860716;28;20233;-88
2021/07/10 12:44:25;;;;;;;6.00;2.83;;;;;;;30.89;29.45;98684.06;6861057;28;20207;-87
2021/07/10 12:48:04;;;;;;;4.63;2.43;;;;;;;31.25;29.53;98650.03;6868193;28;20231;-88
2021/07/10 12:55:59;;;;;;;2.53;2.33;;;;;;;32.09;28.41;98644.59;6878665;28;20191;-85
2021/07/10 12:59:21;;;;;;;2.40;2.20;;;;;;;32.57;28.10;98627.81;6873663;28;20231;-86
2021/07/10 13:02:50;;;;;;;2.13;2.03;;;;;;;33.07;25.89;98662.50;6861336;28;20233;-85
2021/07/10 13:06:12;;;;;;;2.60;2.30;;;;;;;33.72;25.01;98669.53;6872842;28;20219;-88
2021/07/10 13:09:37;;;;;;;2.40;2.20;;;;;;;33.79;26.26;98666.97;6874569;28;20225;-86
2021/07/10 13:13:01;;;;;;;3.63;2.17;;;;;;;33.69;25.70;98664.66;6875657;28;20309;-85
2021/07/10 13:16:24;;;;;;;2.30;2.10;;;;;;;33.69;25.59;98662.69;6873823;28;20222;-86
2021/07/10 13:19:47;;;;;;;5.30;2.30;;;;;;;33.29;27.10;98647.16;6874385;28;20218;-86
2021/07/10 13:23:09;;;;;;;2.67;2.27;;;;;;;33.78;25.30;98643.75;6873467;28;20759;-86
2021/07/10 13:26:33;;;;;;;2.57;2.30;;;;;;;33.36;26.87;98642.59;6872072;28;20218;-86
2021/07/10 13:30:09;;;;;;;2.90;2.23;;;;;;;32.76;27.75;98642.00;6871335;28;20226;-85
2021/07/10 13:33:33;;;;;;;2.10;2.00;;;;;;;33.04;27.82;98643.66;6850584;28;20206;-84
2021/07/10 13:36:58;;;;;;;2.63;2.30;;;;;;;32.95;26.57;98640.19;6844792;28;20222;-83
2021/07/10 13:40:23;;;;;;;3.20;2.10;;;;;;;33.09;27.64;98635.03;6843186;28;20576;-84
2021/07/10 13:44:08;;;;;;;2.60;2.40;;;;;;;33.14;27.37;98631.16;6844469;29;20222;-84
2021/07/10 13:47:30;;;;;;;3.63;2.30;;;;;;;32.79;27.74;98635.72;6859119;28;20195;-85
2021/07/10 13:51:02;;;;;;;2.57;2.27;;;;;;;32.22;27.51;98626.69;6863444;28;20227;-85
2021/07/10 13:54:27;;;;;;;4.00;2.50;;;;;;;32.47;27.75;98628.31;6863865;28;20633;-86
2021/07/10 13:57:50;;;;;;;2.50;2.30;;;;;;;32.65;26.65;98630.47;6839480;28;20273;-86
2021/07/10 14:01:13;;;;;;;2.30;2.13;;;;;;;32.05;27.36;98621.34;6840794;28;20634;-85
2021/07/10 14:04:34;;;;;;;2.87;2.53;;;;;;;32.88;26.17;98600.06;6842497;28;20209;-83
2021/07/10 14:07:58;;;;;;;2.93;2.50;;;;;;;33.02;27.43;98617.25;6845154;28;20245;-89
2021/07/10 14:11:21;;;;;;;2.73;2.53;;;;;;;32.58;27.55;98604.31;6857383;28;20228;-84
2021/07/10 14:14:43;;;;;;;2.60;2.40;;;;;;;32.24;28.51;98594.50;6871405;28;20222;-84
2021/07/10 14:18:05;;;;;;;2.40;2.20;;;;;;;31.09;29.48;98604.44;6872107;28;20215;-84
2021/07/10 14:21:27;;;;;;;3.80;2.90;;;;;;;31.34;29.54;98578.28;6850314;28;20226;-87
2021/07/10 14:24:49;;;;;;;3.07;2.10;;;;;;;30.80;30.09;98597.00;6848409;29;20580;-86
2021/07/10 14:28:12;;;;;;;2.30;2.10;;;;;;;30.78;30.62;98582.59;6851932;28;20709;-84
2021/07/10 14:32:09;;;;;;;2.43;2.23;;;;;;;31.80;29.82;98595.44;6848235;28;20237;-86
2021/07/10 14:35:34;;;;;;;3.40;2.40;;;;;;;31.96;28.30;98587.19;6851544;29;20299;-88
2021/07/10 14:38:56;;;;;;;2.53;2.33;;;;;;;31.84;28.66;98574.03;6839481;29;20786;-89
2021/07/10 14:42:18;;;;;;;3.33;2.10;;;;;;;31.87;28.49;98575.31;6837637;29;20239;-86
2021/07/10 14:45:42;;;;;;;2.37;1.97;;;;;;;31.98;28.21;98568.94;6839301;29;20208;-89
2021/07/10 14:49:05;;;;;;;2.50;2.30;;;;;;;32.21;27.79;98569.25;6837085;29;20232;-88
2021/07/10 14:52:26;;;;;;;2.27;2.10;;;;;;;32.51;27.81;98562.22;6839771;29;20236;-85
2021/07/10 14:55:48;;;;;;;2.60;2.00;;;;;;;32.33;27.98;98535.78;6842853;29;20221;-83
2021/07/10 14:59:12;;;;;;;2.43;2.23;;;;;;;32.24;27.56;98552.66;6840712;29;20552;-85
2021/07/10 15:02:41;;;;;;;2.83;2.17;;;;;;;32.17;27.83;98554.38;6840531;28;20222;-85
2021/07/10 15:06:03;;;;;;;2.37;2.20;;;;;;;32.67;27.00;98508.06;6841671;28;20203;-83
2021/07/10 15:09:25;;;;;;;2.83;1.90;;;;;;;33.38;26.40;98544.41;6842926;28;20234;-82
2021/07/10 15:12:47;;;;;;;2.57;2.13;;;;;;;32.81;26.79;98519.69;6844779;28;20226;-85
2021/07/10 15:16:09;;;;;;;2.47;2.27;;;;;;;32.85;27.21;98531.75;6840970;28;20212;-85
2021/07/10 15:19:34;;;;;;;2.20;2.00;;;;;;;32.41;27.60;98534.81;6841964;28;20213;-85
2021/07/10 15:22:56;;;;;;;2.90;2.20;;;;;;;32.99;26.57;98529.34;6839840;28;20589;-86
2021/07/10 15:26:17;;;;;;;2.77;2.17;;;;;;;30.73;27.78;98529.13;6838982;28;22226;-85
2021/07/10 15:29:39;;;;;;;2.17;1.97;;;;;;;31.49;27.61;98511.53;6867345;28;20239;-92
2021/07/10 15:33:12;;;;;;;2.10;1.90;;;;;;;30.86;28.66;98489.00;6878723;28;20221;-91
2021/07/10 15:36:36;;;;;;;2.43;2.00;;;;;;;31.29;27.88;98479.00;6824953;28;1131638;-92
2021/07/10 15:39:58;;;;;;;2.03;1.90;;;;;;;31.10;28.66;98472.34;6879265;28;20237;-90
2021/07/10 15:43:47;;;;;;;1.90;1.80;;;;;;;31.62;27.59;98510.38;6891361;28;20271;-92
2021/07/10 15:47:17;;;;;;;2.33;2.13;;;;;;;32.16;26.89;98502.53;6887700;28;20228;-91
2021/07/10 15:50:39;;;;;;;3.03;1.87;;;;;;;31.84;27.25;98458.91;6888221;28;20240;-89
2021/07/10 15:54:04;;;;;;;2.33;2.13;;;;;;;31.38;27.65;98417.59;6869920;28;20223;-89
2021/07/10 15:57:32;;;;;;;2.30;2.10;;;;;;;31.72;28.29;98475.66;6873017;28;20273;-88
2021/07/10 16:00:54;;;;;;;1.77;1.67;;;;;;;31.80;27.65;98489.47;6877053;28;20229;-89
2021/07/10 16:04:17;;;;;;;2.63;2.07;;;;;;;32.00;27.64;98485.72;6882515;28;20227;-87
2021/07/10 16:07:44;;;;;;;2.43;2.00;;;;;;;31.88;27.32;98437.50;6882337;28;20210;-89
2021/07/10 16:11:07;;;;;;;1.90;1.80;;;;;;;32.14;27.53;98474.19;6872260;28;20233;-89
2021/07/10 16:14:35;;;;;;;2.63;1.90;;;;;;;31.50;27.86;98478.91;6872110;28;20703;-88
2021/07/10 16:17:57;;;;;;;1.90;1.80;;;;;;;30.75;27.71;98443.28;6872552;28;20247;-91
2021/07/10 16:21:18;;;;;;;2.07;1.97;;;;;;;30.51;28.08;98459.88;6872205;28;20227;-93
2021/07/10 16:25:27;;;;;;;2.13;1.93;;;;;;;31.04;29.60;98471.78;6877619;28;20218;-88
2021/07/10 16:28:50;;;;;;;2.90;2.33;;;;;;;31.08;28.64;98467.09;6879845;28;20320;-91
2021/07/10 16:32:36;;;;;;;2.07;1.97;;;;;;;29.98;30.56;98462.63;6876675;28;20226;-87
2021/07/10 16:36:00;;;;;;;2.17;2.07;;;;;;;30.71;29.58;98453.50;6868286;28;20226;-90
2021/07/10 16:39:26;;;;;;;2.60;2.10;;;;;;;30.65;29.03;98447.31;6872077;28;20207;-88
2021/07/10 16:42:48;;;;;;;2.43;1.83;;;;;;;31.13;29.20;98463.31;6851867;29;20239;-88
2021/07/10 16:46:11;;;;;;;2.40;2.20;;;;;;;31.29;28.59;98441.97;6867976;28;20219;-88
2021/07/10 16:49:33;;;;;;;2.23;2.13;;;;;;;31.60;29.60;98459.72;6874609;28;20239;-87
2021/07/10 16:52:55;;;;;;;2.90;2.10;;;;;;;31.40;29.03;98434.75;6866868;28;20215;-88
2021/07/10 16:56:17;;;;;;;2.40;2.10;;;;;;;30.76;29.43;98419.84;6875576;28;20207;-89
2021/07/10 17:00:08;;;;;;;2.70;2.20;;;;;;;30.77;29.40;98447.34;6861032;28;20412;-87
2021/07/10 17:03:31;;;;;;;2.57;2.37;;;;;;;29.77;32.10;98454.28;6853022;29;20208;-92
2021/07/10 17:06:54;;;;;;;3.77;2.33;;;;;;;29.20;31.80;98447.56;6848568;28;20299;-93
2021/07/10 17:10:20;;;;;;;2.87;2.27;;;;;;;30.42;31.58;98440.47;6861467;28;20223;-88
2021/07/10 17:13:45;;;;;;;2.20;2.10;;;;;;;30.24;31.24;98446.56;6850774;29;20266;-90
2021/07/10 17:17:07;;;;;;;2.40;2.20;;;;;;;29.25;33.39;98439.03;6865974;28;20211;-92
2021/07/10 17:20:33;;;;;;;2.67;2.47;;;;;;;29.29;32.97;98392.78;6891119;28;20206;-91
2021/07/10 17:24:11;;;;;;;2.10;1.97;;;;;;;29.59;32.92;98396.34;6885235;28;20234;-90
2021/07/10 17:27:32;;;;;;;2.50;2.30;;;;;;;29.91;33.03;98429.00;6858751;28;20208;-89
2021/07/10 17:31:00;;;;;;;3.70;2.60;;;;;;;30.01;32.29;98421.03;6859344;28;20234;-87
2021/07/10 17:34:22;;;;;;;2.80;2.60;;;;;;;29.34;33.37;98425.09;6889334;28;20219;-91
2021/07/10 17:38:09;;;;;;;2.30;2.10;;;;;;;29.15;33.12;98395.00;6881128;28;20223;-88
2021/07/10 17:41:36;;;;;;;2.80;2.50;;;;;;;29.23;33.55;98396.91;6862899;28;20226;-88
2021/07/10 17:44:58;;;;;;;3.73;2.30;;;;;;;29.85;33.02;98422.00;6839038;28;20212;-91
2021/07/10 17:48:20;;;;;;;3.23;2.93;;;;;;;29.57;33.43;98413.41;6837423;29;20269;-91
2021/07/10 17:51:43;;;;;;;2.67;2.47;;;;;;;29.40;33.65;98419.03;6842022;29;20235;-87
2021/07/10 17:55:11;;;;;;;2.80;2.60;;;;;;;29.40;33.96;98405.13;6858392;28;20214;-88
2021/07/10 17:58:33;;;;;;;2.80;2.43;;;;;;;29.40;34.33;98426.53;6855294;28;20213;-89
2021/07/10 18:01:54;;;;;;;2.60;2.40;;;;;;;29.56;34.24;98428.44;6868167;28;20234;-88
2021/07/10 18:05:16;;;;;;;2.60;2.40;;;;;;;30.06;33.58;98418.06;6870893;28;20209;-91
2021/07/10 18:08:38;;;;;;;3.27;2.73;;;;;;;29.78;33.86;98425.31;6863649;28;20218;-88
2021/07/10 18:12:01;;;;;;;3.53;3.23;;;;;;;29.65;34.34;98426.41;6858259;28;20240;-88
2021/07/10 18:15:22;;;;;;;3.33;3.13;;;;;;;29.43;34.84;98418.34;6871828;28;20211;-90
2021/07/10 18:18:44;;;;;;;3.10;2.80;;;;;;;29.31;35.66;98423.81;6870951;28;20222;-90
2021/07/10 18:22:06;;;;;;;3.00;2.80;;;;;;;29.43;35.42;98425.88;6869416;28;20328;-88
2021/07/10 18:25:28;;;;;;;3.10;2.90;;;;;;;29.27;35.66;98420.09;6863438;28;20330;-89
2021/07/10 18:28:51;;;;;;;3.37;3.07;;;;;;;29.23;36.12;98380.25;6847830;28;20214;-88
2021/07/10 18:32:13;;;;;;;3.23;2.60;;;;;;;29.04;35.89;98399.31;6851669;28;20229;-88
2021/07/10 18:35:35;;;;;;;3.40;2.80;;;;;;;28.68;36.33;98432.25;6850313;28;20222;-89
2021/07/10 18:38:56;;;;;;;3.20;3.00;;;;;;;28.87;36.67;98423.50;6850766;28;20286;-88
2021/07/10 18:42:18;;;;;;;3.30;3.10;;;;;;;28.79;36.78;98416.84;6869255;28;20234;-88
2021/07/10 18:45:41;;;;;;;3.80;3.50;;;;;;;28.28;37.52;98375.38;6871524;28;20674;-89
2021/07/10 18:49:07;;;;;;;3.23;2.93;;;;;;;28.83;36.42;98425.34;6880734;28;20213;-85
2021/07/10 18:52:28;;;;;;;2.93;2.73;;;;;;;28.40;36.90;98400.50;6873399;28;20225;-88
2021/07/10 18:55:50;;;;;;;4.07;3.10;;;;;;;29.11;37.06;98415.44;6843750;28;20582;-88
2021/07/10 18:59:11;;;;;;;3.40;3.10;;;;;;;29.16;39.59;98413.28;6838396;28;20217;-88
2021/07/10 19:02:34;;;;;;;3.53;3.17;;;;;;;28.86;40.66;98413.56;6853423;28;20229;-87
2021/07/10 19:05:59;;;;;;;3.60;3.20;;;;;;;28.42;42.19;98412.06;6867485;28;20220;-87
2021/07/10 19:09:21;;;;;;;4.00;3.60;;;;;;;28.37;42.56;98401.16;6868217;28;20283;-88
2021/07/10 19:12:43;;;;;;;5.70;3.90;;;;;;;28.20;43.56;98415.00;6861657;28;20217;-87
2021/07/10 19:16:05;;;;;;;7.53;4.00;;;;;;;28.08;43.76;98423.19;6867914;28;20220;-87
2021/07/10 19:19:28;;;;;;;5.87;3.63;;;;;;;27.80;44.89;98421.91;6864189;28;20232;-88
2021/07/10 19:22:50;;;;;;;5.10;3.50;;;;;;;27.96;44.61;98425.78;6848948;28;20225;-86
2021/07/10 19:26:12;;;;;;;4.63;4.20;;;;;;;27.82;45.12;98408.53;6844919;28;20671;-86
2021/07/10 19:29:34;;;;;;;4.80;3.63;;;;;;;27.64;45.85;98428.19;6846227;28;20269;-88
2021/07/10 19:32:56;;;;;;;4.90;3.97;;;;;;;27.51;46.41;98424.44;6863001;28;20256;-89
2021/07/10 19:36:19;;;;;;;5.07;4.27;;;;;;;27.30;45.88;98415.13;6859087;28;20216;-88
2021/07/10 19:39:41;;;;;;;4.60;4.10;;;;;;;27.39;46.35;98440.06;6835782;29;20681;-87
2021/07/10 19:43:05;;;;;;;4.57;3.97;;;;;;;27.28;46.94;98434.00;6835559;28;20236;-86
2021/07/10 19:46:27;;;;;;;6.30;4.00;;;;;;;27.16;47.28;98438.53;6841510;28;20210;-86